Aviation Digital Data Service (ADDS)

Output produced by METARs form (1909 UTC 19 January 2017)
found at http://www.aviationweather.gov/adds/metars/
 
KDUJ 191853Z AUTO 22004KT 10SM OVC009 03/M01 A2997 RMK AO2 SLP164 T00281006
KDUJ 191753Z AUTO 23005KT 10SM OVC007 02/M01 A3001 RMK AO2 SLP176 T00221006 10022 20011 58018
KDUJ 191653Z AUTO 25006KT 10SM OVC005 02/M01 A3003 RMK AO2 SLP184 T00171006
KDUJ 191553Z AUTO 25009KT 10SM OVC006 02/M01 A3006 RMK AO2 SLP195 T00171006
KDUJ 191453Z AUTO 26008KT 10SM OVC005 01/M01 A3007 RMK AO2 SLP196 T00111006 53010
KDUJ 191353Z AUTO 25009KT 9SM OVC006 01/M01 A3005 RMK AO2 SLP190 T00111006
KDUJ 191313Z AUTO 25009KT 9SM OVC005 01/M01 A3005 RMK AO2 T00111006
KDUJ 191253Z AUTO 24009KT 6SM BR OVC004 01/00 A3004 RMK AO2 SLP189 T00110000
KDUJ 191204Z AUTO 26010KT 10SM OVC006 01/M01 A3004 RMK AO2 T00111006
KDUJ 191153Z AUTO 25009KT 9SM OVC004 01/M01 A3003 RMK AO2 CIG 002V006 SLP186 70001 T00111006 10017 20011 53004
KDUJ 191138Z AUTO 25009KT 6SM BR OVC002 01/M01 A3004 RMK AO2 CIG 002V006 T00111006
KDUJ 191126Z AUTO 26007KT 2SM BR OVC003 01/00 A3004 RMK AO2 T00110000
KDUJ 191053Z AUTO 26009KT 6SM BR OVC004 02/00 A3003 RMK AO2 SLP184 T00170000
KDUJ 191000Z AUTO 26008KT 9SM OVC004 02/00 A3001 RMK AO2 T00170000
KDUJ 190953Z AUTO 26009KT 9SM OVC005 02/00 A3000 RMK AO2 SLP175 T00170000
KDUJ 190853Z AUTO 26011KT 9SM BKN005 OVC009 02/00 A3002 RMK AO2 SLP181 T00170000 50003
KDUJ 190753Z AUTO 25011KT 7SM OVC007 02/00 A3003 RMK AO2 CIG 004V011 SLP183 T00170000
KDUJ 190700Z AUTO 27010KT 10SM OVC007 02/00 A3003 RMK AO2 CIG 006V012 T00170000
KDUJ 190653Z AUTO 27009KT 10SM SCT007 OVC012 02/00 A3003 RMK AO2 SLP185 T00170000
KDUJ 190612Z AUTO 25009KT 5SM BR OVC006 02/01 A3002 RMK AO2 CIG 003V010 T00170006
KDUJ 190600Z AUTO 26011KT 6SM BR BKN004 BKN010 OVC014 02/00 A3002 RMK AO2 CIG 003V008 T00170000
KDUJ 190553Z AUTO 25011KT 5SM BR BKN006 OVC014 02/01 A3001 RMK AO2 CIG 003V010 SLP178 T00170006 10022 20017 58004
KDUJ 190453Z AUTO 25011KT 5SM BR OVC004 02/01 A3003 RMK AO2 SLP181 T00220006 400830017
KDUJ 190448Z AUTO 25012KT 4SM BR OVC004 02/01 A3003 RMK AO2
KDUJ 190437Z AUTO 25012KT 2 1/2SM BR OVC004 02/01 A3003 RMK AO2 T00220006
KDUJ 190350Z AUTO 25012KT 3SM BR OVC002 02/01 A3003 RMK AO2 SLP183 T00170006
KDUJ 190349Z AUTO 25011KT 3SM BR OVC002 02/01 A3003 RMK AO2
KDUJ 190253Z AUTO 25012KT 1 3/4SM BR OVC003 02/01 A3002 RMK AO2 SLP179 T00170006 56007
KDUJ 190228Z AUTO 25010KT 2 1/2SM BR OVC003 02/01 A3002 RMK AO2 CIG 002V007 T00170006
KDUJ 190153Z AUTO 24009KT 3SM BR OVC003 02/01 A3002 RMK AO2 SLP179 T00170006
KDUJ 190053Z AUTO 25009KT 3SM BR OVC003 02/01 A3003 RMK AO2 SLP183 T00170006
KDUJ 190014Z AUTO 26007KT 3SM BR OVC003 02/01 A3003 RMK AO2 T00170006
KDUJ 182353Z AUTO 26008KT 2 1/2SM BR OVC003 02/01 A3004 RMK AO2 SLP186 I6000 T00170006 10028 20017 51007
KDUJ 182332Z AUTO 27007KT 3SM BR OVC004 02/01 A3004 RMK AO2 CIG 003V007 T00170006
KDUJ 182253Z AUTO 26011KT 4SM BR OVC005 02/00 A3004 RMK AO2 SLP183 T00170000
KDUJ 182250Z AUTO 26009KT 4SM BR OVC005 02/00 A3004 RMK AO2
KDUJ 182218Z AUTO 26009KT 3SM BR OVC004 02/01 A3004 RMK AO2 T00170006
KDUJ 182210Z AUTO 26008KT 2 1/2SM BR OVC004 02/01 A3003 RMK AO2 T00170006
KDUJ 182203Z AUTO 27008KT 3SM BR OVC004 02/01 A3002 RMK AO2 CIG 002V009 T00170006
KDUJ 182153Z AUTO 26009KT 2 1/2SM BR BKN004 OVC008 02/01 A3002 RMK AO2 CIG 002V006 SLP177 I1000 T00170006
KDUJ 182148Z AUTO 26011KT 2SM BR OVC004 02/01 A3002 RMK AO2 CIG 003V008 I1000
KDUJ 182125Z AUTO 26011KT 1 1/2SM BR OVC005 02/01 A3002 RMK AO2 CIG 003V009 T00220006
KDUJ 182108Z AUTO 27011KT 2 1/2SM BR OVC005 02/01 A3002 RMK AO2 CIG 003V009 T00220006
KDUJ 182100Z AUTO 27011KT 1 3/4SM BR OVC005 02/01 A3002 RMK AO2 CIG 003V007 T00220006
KDUJ 182053Z AUTO 26008KT 2SM BR OVC005 02/01 A3002 RMK AO2 CIG 003V008 SLP175 T00220006 53011
KDUJ 182040Z AUTO 27006KT 2SM BR OVC006 02/01 A3001 RMK AO2 CIG 003V008 T00220006
KDUJ 182011Z AUTO 26011G19KT 3SM BR OVC006 02/01 A3000 RMK AO2 CIG 003V010 T00220006
KDUJ 181959Z AUTO 27011G19KT 2SM BR OVC006 02/01 A3000 RMK AO2 CIG 003V010 T00220006
KDUJ 181953Z AUTO 27012KT 1 1/2SM BR OVC004 02/01 A3000 RMK AO2 CIG 003V008 SLP169 T00220006
KDUJ 181930Z AUTO 27013KT 1 1/2SM BR OVC003 02/01 A3000 RMK AO2 T00220006
KDUJ 181920Z AUTO 28011KT 2 1/2SM BR OVC003 02/01 A3000 RMK AO2 T00220006
KDUJ 181912Z AUTO 27011KT 3SM BR OVC003 02/01 A2999 RMK AO2 T00220006
KDUJ 181853Z AUTO 27011KT 2 1/2SM BR OVC004 02/01 A2998 RMK AO2 SLP162 T00220006
KDUJ 181753Z AUTO 28008G19KT 10SM OVC005 03/01 A2998 RMK AO2 CIG 005V008 SLP162 60001 T00280011 10044 20028 51004
KDUJ 181653Z AUTO 28011KT 10SM OVC009 03/01 A2998 RMK AO2 CIG 007V011 SLP160 T00330011
KDUJ 181553Z AUTO 28009KT 10SM OVC007 03/01 A2999 RMK AO2 CIG 005V011 SLP163 T00330011
KDUJ 181453Z AUTO 28010G16KT 10SM BKN007 OVC011 04/02 A2997 RMK AO2 SLP155 60001 T00390017 53013
KDUJ 181353Z AUTO 27012KT 10SM OVC009 03/02 A2995 RMK AO2 CIG 006V012 SLP148 T00330017
KDUJ 181315Z AUTO 28012G20KT 10SM BKN009 OVC016 04/02 A2994 RMK AO2 T00390017
KDUJ 181253Z AUTO 28011KT 10SM FEW010 BKN018 OVC024 04/02 A2993 RMK AO2 RAB1158E13 SLP140 P0001 T00390017
KDUJ 181239Z AUTO 29010KT 10SM BKN010 OVC025 04/02 A2992 RMK AO2 RAB1158E13 P0001 T00390022
KDUJ 181203Z AUTO 29008KT 5SM -RA BR BKN008 OVC014 04/03 A2992 RMK AO2 RAB1158 P0001 T00440028
KDUJ 181153Z AUTO 30011G18KT 5SM BR SCT006 OVC015 04/03 A2991 RMK AO2 SLP136 70020 T00440028 10083 20044 53018
KDUJ 181151Z AUTO 30013G18KT 5SM BR SCT006 OVC015 04/03 A2991 RMK AO2
KDUJ 181143Z AUTO 29009G20KT 3SM BR BKN006 OVC011 05/03 A2991 RMK AO2 T00500033
KDUJ 181134Z AUTO 28010KT 1 3/4SM BR OVC006 05/03 A2991 RMK AO2 T00500033
KDUJ 181053Z AUTO 29013G17KT 3SM BR OVC009 06/03 A2989 RMK AO2 SLP127 T00560033
KDUJ 181030Z AUTO 28011KT 5SM BR BKN006 OVC010 06/04 A2989 RMK AO2 CIG 004V009 T00560039
KDUJ 181019Z AUTO 30012G16KT 2SM BR OVC006 06/04 A2988 RMK AO2 CIG 004V010 T00560039
KDUJ 180953Z AUTO 28010G20KT 10SM OVC007 06/04 A2987 RMK AO2 SLP120 T00610039
KDUJ 180853Z AUTO 27012G19KT 10SM OVC007 07/04 A2986 RMK AO2 SLP116 T00670039 51008
KDUJ 180753Z AUTO 27010KT 10SM OVC007 07/04 A2986 RMK AO2 CIG 005V011 SLP116 T00670044